sensor_id;sensor_type;location;lat;lon;timestamp;P1;durP1;ratioP1;P2;durP2;ratioP2
5452;SDS011;2749;53.576;9.822;2023-04-01T00:01:51;8.33;;;7.20;;
5452;SDS011;2749;53.576;9.822;2023-04-01T00:04:17;7.50;;;5.47;;
5452;SDS011;2749;53.576;9.822;2023-04-01T00:06:43;8.83;;;5.80;;
5452;SDS011;2749;53.576;9.822;2023-04-01T00:09:10;12.13;;;7.20;;
5452;SDS011;2749;53.576;9.822;2023-04-01T00:11:36;11.40;;;6.20;;
5452;SDS011;2749;53.576;9.822;2023-04-01T00:14:02;8.70;;;7.03;;
5452;SDS011;2749;53.576;9.822;2023-04-01T00:16:27;10.47;;;6.80;;
5452;SDS011;2749;53.576;9.822;2023-04-01T00:18:53;12.17;;;6.63;;
5452;SDS011;2749;53.576;9.822;2023-04-01T00:21:19;6.70;;;5.40;;
5452;SDS011;2749;53.576;9.822;2023-04-01T00:23:46;13.17;;;7.50;;
5452;SDS011;2749;53.576;9.822;2023-04-01T00:26:12;10.43;;;6.63;;
5452;SDS011;2749;53.576;9.822;2023-04-01T00:28:40;10.43;;;5.50;;
5452;SDS011;2749;53.576;9.822;2023-04-01T00:31:07;13.30;;;6.53;;
5452;SDS011;2749;53.576;9.822;2023-04-01T00:33:33;10.50;;;6.80;;
5452;SDS011;2749;53.576;9.822;2023-04-01T00:36:10;15.03;;;6.13;;
5452;SDS011;2749;53.576;9.822;2023-04-01T00:38:36;8.37;;;5.47;;
5452;SDS011;2749;53.576;9.822;2023-04-01T00:41:03;8.57;;;6.23;;
5452;SDS011;2749;53.576;9.822;2023-04-01T00:43:29;9.40;;;5.73;;
5452;SDS011;2749;53.576;9.822;2023-04-01T00:45:55;6.93;;;5.83;;
5452;SDS011;2749;53.576;9.822;2023-04-01T00:48:25;10.57;;;7.00;;
5452;SDS011;2749;53.576;9.822;2023-04-01T00:50:53;7.10;;;6.40;;
5452;SDS011;2749;53.576;9.822;2023-04-01T00:53:20;7.93;;;5.70;;
5452;SDS011;2749;53.576;9.822;2023-04-01T00:55:49;15.00;;;8.00;;
5452;SDS011;2749;53.576;9.822;2023-04-01T00:58:16;10.47;;;7.53;;
5452;SDS011;2749;53.576;9.822;2023-04-01T01:00:43;9.83;;;7.60;;
5452;SDS011;2749;53.576;9.822;2023-04-01T01:03:10;10.20;;;7.33;;
5452;SDS011;2749;53.576;9.822;2023-04-01T01:08:57;8.97;;;7.00;;
5452;SDS011;2749;53.576;9.822;2023-04-01T01:11:01;7.73;;;6.73;;
5452;SDS011;2749;53.576;9.822;2023-04-01T01:16:03;13.57;;;7.83;;
5452;SDS011;2749;53.576;9.822;2023-04-01T01:31:53;12.33;;;8.10;;
5452;SDS011;2749;53.576;9.822;2023-04-01T01:34:33;9.00;;;7.10;;
5452;SDS011;2749;53.576;9.822;2023-04-01T01:37:03;10.40;;;7.77;;
5452;SDS011;2749;53.576;9.822;2023-04-01T01:39:31;15.20;;;7.40;;
5452;SDS011;2749;53.576;9.822;2023-04-01T01:42:00;11.30;;;8.53;;
5452;SDS011;2749;53.576;9.822;2023-04-01T01:44:28;11.37;;;8.73;;
5452;SDS011;2749;53.576;9.822;2023-04-01T01:46:55;13.90;;;8.70;;
5452;SDS011;2749;53.576;9.822;2023-04-01T01:49:22;8.80;;;7.90;;
5452;SDS011;2749;53.576;9.822;2023-04-01T01:51:48;10.97;;;8.40;;
5452;SDS011;2749;53.576;9.822;2023-04-01T01:54:15;17.40;;;9.20;;
5452;SDS011;2749;53.576;9.822;2023-04-01T01:56:42;10.87;;;7.43;;
5452;SDS011;2749;53.576;9.822;2023-04-01T01:59:10;12.50;;;8.10;;
5452;SDS011;2749;53.576;9.822;2023-04-01T02:01:38;9.30;;;7.97;;
5452;SDS011;2749;53.576;9.822;2023-04-01T02:04:05;10.63;;;7.23;;
5452;SDS011;2749;53.576;9.822;2023-04-01T02:06:32;18.80;;;7.60;;
5452;SDS011;2749;53.576;9.822;2023-04-01T02:09:00;13.10;;;8.50;;
5452;SDS011;2749;53.576;9.822;2023-04-01T02:11:35;12.00;;;8.33;;
5452;SDS011;2749;53.576;9.822;2023-04-01T02:14:04;8.83;;;7.50;;
5452;SDS011;2749;53.576;9.822;2023-04-01T02:16:32;9.40;;;7.27;;
5452;SDS011;2749;53.576;9.822;2023-04-01T02:18:59;11.83;;;7.97;;
5452;SDS011;2749;53.576;9.822;2023-04-01T02:21:28;10.90;;;7.77;;
5452;SDS011;2749;53.576;9.822;2023-04-01T02:23:55;9.03;;;7.57;;
5452;SDS011;2749;53.576;9.822;2023-04-01T02:26:22;9.00;;;7.60;;
5452;SDS011;2749;53.576;9.822;2023-04-01T02:28:50;14.63;;;7.30;;
5452;SDS011;2749;53.576;9.822;2023-04-01T02:31:17;9.20;;;8.10;;
5452;SDS011;2749;53.576;9.822;2023-04-01T02:33:43;11.00;;;8.17;;
5452;SDS011;2749;53.576;9.822;2023-04-01T02:36:12;11.80;;;8.43;;
5452;SDS011;2749;53.576;9.822;2023-04-01T02:38:39;12.03;;;8.40;;
5452;SDS011;2749;53.576;9.822;2023-04-01T02:41:05;9.90;;;7.30;;
5452;SDS011;2749;53.576;9.822;2023-04-01T02:43:31;9.50;;;6.83;;
5452;SDS011;2749;53.576;9.822;2023-04-01T02:45:57;9.00;;;7.80;;
5452;SDS011;2749;53.576;9.822;2023-04-01T02:48:23;10.43;;;7.63;;
5452;SDS011;2749;53.576;9.822;2023-04-01T02:50:49;15.23;;;8.67;;
5452;SDS011;2749;53.576;9.822;2023-04-01T02:53:15;11.97;;;8.40;;
5452;SDS011;2749;53.576;9.822;2023-04-01T02:55:41;10.87;;;7.83;;
5452;SDS011;2749;53.576;9.822;2023-04-01T02:58:08;9.27;;;7.70;;
5452;SDS011;2749;53.576;9.822;2023-04-01T03:00:34;9.67;;;7.87;;
5452;SDS011;2749;53.576;9.822;2023-04-01T03:03:00;11.60;;;8.70;;
5452;SDS011;2749;53.576;9.822;2023-04-01T03:05:25;12.23;;;9.50;;
5452;SDS011;2749;53.576;9.822;2023-04-01T03:07:51;12.37;;;9.20;;
5452;SDS011;2749;53.576;9.822;2023-04-01T03:10:17;9.90;;;9.00;;
5452;SDS011;2749;53.576;9.822;2023-04-01T03:12:43;12.70;;;8.23;;
5452;SDS011;2749;53.576;9.822;2023-04-01T03:15:10;9.90;;;9.00;;
5452;SDS011;2749;53.576;9.822;2023-04-01T03:17:37;13.00;;;8.03;;
5452;SDS011;2749;53.576;9.822;2023-04-01T03:20:03;10.33;;;8.50;;
5452;SDS011;2749;53.576;9.822;2023-04-01T03:22:29;11.43;;;10.33;;
5452;SDS011;2749;53.576;9.822;2023-04-01T03:24:55;12.77;;;8.83;;
5452;SDS011;2749;53.576;9.822;2023-04-01T03:27:21;10.70;;;9.60;;
5452;SDS011;2749;53.576;9.822;2023-04-01T03:29:48;12.90;;;7.60;;
5452;SDS011;2749;53.576;9.822;2023-04-01T03:32:14;10.93;;;8.37;;
5452;SDS011;2749;53.576;9.822;2023-04-01T03:34:40;11.57;;;8.57;;
5452;SDS011;2749;53.576;9.822;2023-04-01T03:37:06;15.13;;;10.00;;
5452;SDS011;2749;53.576;9.822;2023-04-01T03:39:32;12.13;;;9.10;;
5452;SDS011;2749;53.576;9.822;2023-04-01T03:41:58;11.30;;;10.10;;
5452;SDS011;2749;53.576;9.822;2023-04-01T03:44:24;15.10;;;9.83;;
5452;SDS011;2749;53.576;9.822;2023-04-01T03:46:50;12.93;;;10.20;;
5452;SDS011;2749;53.576;9.822;2023-04-01T03:49:16;13.40;;;10.13;;
5452;SDS011;2749;53.576;9.822;2023-04-01T03:51:43;16.60;;;10.40;;
5452;SDS011;2749;53.576;9.822;2023-04-01T03:54:09;16.93;;;10.60;;
5452;SDS011;2749;53.576;9.822;2023-04-01T03:56:36;13.10;;;10.63;;
5452;SDS011;2749;53.576;9.822;2023-04-01T03:59:02;11.70;;;10.17;;
5452;SDS011;2749;53.576;9.822;2023-04-01T04:01:29;12.57;;;9.37;;
5452;SDS011;2749;53.576;9.822;2023-04-01T04:03:55;11.50;;;9.50;;
5452;SDS011;2749;53.576;9.822;2023-04-01T04:06:22;18.30;;;11.40;;
5452;SDS011;2749;53.576;9.822;2023-04-01T04:08:48;12.13;;;10.90;;
5452;SDS011;2749;53.576;9.822;2023-04-01T04:11:14;13.10;;;10.83;;
5452;SDS011;2749;53.576;9.822;2023-04-01T04:13:40;14.90;;;11.60;;
5452;SDS011;2749;53.576;9.822;2023-04-01T04:16:07;14.20;;;11.17;;
5452;SDS011;2749;53.576;9.822;2023-04-01T04:18:33;13.53;;;10.93;;
5452;SDS011;2749;53.576;9.822;2023-04-01T04:20:59;11.23;;;9.80;;
5452;SDS011;2749;53.576;9.822;2023-04-01T04:23:25;18.87;;;11.33;;
5452;SDS011;2749;53.576;9.822;2023-04-01T04:26:02;14.10;;;10.77;;
5452;SDS011;2749;53.576;9.822;2023-04-01T04:28:29;10.87;;;9.33;;
5452;SDS011;2749;53.576;9.822;2023-04-01T04:30:55;12.50;;;9.23;;
5452;SDS011;2749;53.576;9.822;2023-04-01T04:33:24;13.97;;;9.20;;
5452;SDS011;2749;53.576;9.822;2023-04-01T04:35:50;10.87;;;9.73;;
5452;SDS011;2749;53.576;9.822;2023-04-01T04:38:16;15.13;;;9.47;;
5452;SDS011;2749;53.576;9.822;2023-04-01T04:40:42;14.00;;;9.47;;
5452;SDS011;2749;53.576;9.822;2023-04-01T04:43:12;19.83;;;10.60;;
5452;SDS011;2749;53.576;9.822;2023-04-01T04:45:38;11.50;;;9.60;;
5452;SDS011;2749;53.576;9.822;2023-04-01T04:48:04;11.53;;;9.30;;
5452;SDS011;2749;53.576;9.822;2023-04-01T04:50:30;14.23;;;9.40;;
5452;SDS011;2749;53.576;9.822;2023-04-01T04:52:56;12.27;;;9.80;;
5452;SDS011;2749;53.576;9.822;2023-04-01T04:55:22;14.40;;;11.10;;
5452;SDS011;2749;53.576;9.822;2023-04-01T04:57:48;16.80;;;10.70;;
5452;SDS011;2749;53.576;9.822;2023-04-01T05:00:14;15.27;;;10.53;;
5452;SDS011;2749;53.576;9.822;2023-04-01T05:02:40;11.47;;;9.97;;
5452;SDS011;2749;53.576;9.822;2023-04-01T05:05:06;11.20;;;9.90;;
5452;SDS011;2749;53.576;9.822;2023-04-01T05:07:32;12.40;;;11.10;;
5452;SDS011;2749;53.576;9.822;2023-04-01T05:09:58;13.40;;;10.43;;
5452;SDS011;2749;53.576;9.822;2023-04-01T05:12:24;15.00;;;10.23;;
5452;SDS011;2749;53.576;9.822;2023-04-01T05:14:50;12.50;;;10.70;;
5452;SDS011;2749;53.576;9.822;2023-04-01T05:17:16;14.77;;;11.57;;
5452;SDS011;2749;53.576;9.822;2023-04-01T05:19:42;10.20;;;9.00;;
5452;SDS011;2749;53.576;9.822;2023-04-01T05:22:08;11.67;;;10.17;;
5452;SDS011;2749;53.576;9.822;2023-04-01T05:24:34;14.50;;;10.83;;
5452;SDS011;2749;53.576;9.822;2023-04-01T05:27:00;10.80;;;9.13;;
5452;SDS011;2749;53.576;9.822;2023-04-01T05:29:26;14.77;;;10.70;;
5452;SDS011;2749;53.576;9.822;2023-04-01T05:31:52;11.57;;;9.37;;
5452;SDS011;2749;53.576;9.822;2023-04-01T05:34:18;8.83;;;5.97;;
5452;SDS011;2749;53.576;9.822;2023-04-01T05:36:44;3.80;;;1.80;;
5452;SDS011;2749;53.576;9.822;2023-04-01T05:39:10;1.83;;;1.63;;
5452;SDS011;2749;53.576;9.822;2023-04-01T05:41:36;1.33;;;1.23;;
5452;SDS011;2749;53.576;9.822;2023-04-01T05:44:02;1.67;;;1.43;;
5452;SDS011;2749;53.576;9.822;2023-04-01T05:46:28;1.30;;;1.20;;
5452;SDS011;2749;53.576;9.822;2023-04-01T05:48:54;1.20;;;1.10;;
5452;SDS011;2749;53.576;9.822;2023-04-01T05:51:20;1.33;;;1.10;;
5452;SDS011;2749;53.576;9.822;2023-04-01T05:53:46;2.13;;;1.30;;
5452;SDS011;2749;53.576;9.822;2023-04-01T05:56:12;1.30;;;1.20;;
5452;SDS011;2749;53.576;9.822;2023-04-01T05:58:39;1.40;;;1.30;;
5452;SDS011;2749;53.576;9.822;2023-04-01T06:01:06;1.53;;;1.43;;
5452;SDS011;2749;53.576;9.822;2023-04-01T06:03:32;1.47;;;1.10;;
5452;SDS011;2749;53.576;9.822;2023-04-01T06:05:58;1.67;;;1.53;;
5452;SDS011;2749;53.576;9.822;2023-04-01T06:08:26;2.33;;;1.27;;
5452;SDS011;2749;53.576;9.822;2023-04-01T06:11:04;1.57;;;1.47;;
5452;SDS011;2749;53.576;9.822;2023-04-01T06:19:09;1.50;;;1.20;;
5452;SDS011;2749;53.576;9.822;2023-04-01T06:24:22;1.27;;;1.00;;
5452;SDS011;2749;53.576;9.822;2023-04-01T06:26:55;1.67;;;1.10;;
5452;SDS011;2749;53.576;9.822;2023-04-01T06:32:14;2.80;;;1.30;;
5452;SDS011;2749;53.576;9.822;2023-04-01T06:37:39;1.43;;;1.10;;
5452;SDS011;2749;53.576;9.822;2023-04-01T06:48:03;1.37;;;1.27;;
5452;SDS011;2749;53.576;9.822;2023-04-01T06:50:36;1.33;;;0.97;;
5452;SDS011;2749;53.576;9.822;2023-04-01T06:55:35;1.00;;;0.80;;
5452;SDS011;2749;53.576;9.822;2023-04-01T06:58:03;4.60;;;1.20;;
5452;SDS011;2749;53.576;9.822;2023-04-01T07:00:31;1.10;;;1.00;;
5452;SDS011;2749;53.576;9.822;2023-04-01T07:03:05;0.97;;;0.80;;
5452;SDS011;2749;53.576;9.822;2023-04-01T07:05:33;0.77;;;0.73;;
5452;SDS011;2749;53.576;9.822;2023-04-01T07:08:04;2.60;;;1.40;;
5452;SDS011;2749;53.576;9.822;2023-04-01T07:13:02;0.90;;;0.70;;
5452;SDS011;2749;53.576;9.822;2023-04-01T07:15:31;1.13;;;0.90;;
5452;SDS011;2749;53.576;9.822;2023-04-01T07:18:03;1.07;;;0.97;;
5452;SDS011;2749;53.576;9.822;2023-04-01T07:20:31;1.20;;;1.10;;
5452;SDS011;2749;53.576;9.822;2023-04-01T07:23:02;1.30;;;1.20;;
5452;SDS011;2749;53.576;9.822;2023-04-01T07:28:00;0.70;;;0.70;;
5452;SDS011;2749;53.576;9.822;2023-04-01T07:30:26;1.10;;;0.97;;
5452;SDS011;2749;53.576;9.822;2023-04-01T07:33:04;1.83;;;1.17;;
5452;SDS011;2749;53.576;9.822;2023-04-01T07:35:36;0.90;;;0.80;;
5452;SDS011;2749;53.576;9.822;2023-04-01T07:43:00;1.37;;;1.00;;
5452;SDS011;2749;53.576;9.822;2023-04-01T07:45:36;1.00;;;0.90;;
5452;SDS011;2749;53.576;9.822;2023-04-01T07:56:12;1.40;;;0.93;;
5452;SDS011;2749;53.576;9.822;2023-04-01T08:01:22;1.30;;;0.90;;
5452;SDS011;2749;53.576;9.822;2023-04-01T08:06:40;1.77;;;1.07;;
5452;SDS011;2749;53.576;9.822;2023-04-01T08:11:40;1.00;;;0.90;;
5452;SDS011;2749;53.576;9.822;2023-04-01T08:19:24;2.33;;;2.10;;
5452;SDS011;2749;53.576;9.822;2023-04-01T08:21:57;2.67;;;1.60;;
5452;SDS011;2749;53.576;9.822;2023-04-01T08:24:25;1.67;;;1.17;;
5452;SDS011;2749;53.576;9.822;2023-04-01T08:26:54;1.67;;;1.00;;
5452;SDS011;2749;53.576;9.822;2023-04-01T08:29:26;3.37;;;1.10;;
5452;SDS011;2749;53.576;9.822;2023-04-01T08:32:06;1.20;;;0.80;;
5452;SDS011;2749;53.576;9.822;2023-04-01T08:34:36;2.23;;;1.17;;
5452;SDS011;2749;53.576;9.822;2023-04-01T08:37:14;1.40;;;1.30;;
5452;SDS011;2749;53.576;9.822;2023-04-01T08:39:49;1.63;;;0.97;;
5452;SDS011;2749;53.576;9.822;2023-04-01T08:45:14;1.40;;;1.30;;
5452;SDS011;2749;53.576;9.822;2023-04-01T08:50:26;1.03;;;0.93;;
5452;SDS011;2749;53.576;9.822;2023-04-01T08:55:44;1.07;;;0.97;;
5452;SDS011;2749;53.576;9.822;2023-04-01T09:00:57;1.50;;;0.90;;
5452;SDS011;2749;53.576;9.822;2023-04-01T09:03:37;1.60;;;1.20;;
5452;SDS011;2749;53.576;9.822;2023-04-01T09:13:48;1.43;;;1.20;;
5452;SDS011;2749;53.576;9.822;2023-04-01T09:18:59;1.50;;;1.10;;
5452;SDS011;2749;53.576;9.822;2023-04-01T09:24:02;1.10;;;0.97;;
5452;SDS011;2749;53.576;9.822;2023-04-01T09:26:42;1.67;;;1.20;;
5452;SDS011;2749;53.576;9.822;2023-04-01T09:29:18;2.30;;;0.90;;
5452;SDS011;2749;53.576;9.822;2023-04-01T09:37:19;1.10;;;1.00;;
5452;SDS011;2749;53.576;9.822;2023-04-01T09:39:54;1.50;;;1.23;;
5452;SDS011;2749;53.576;9.822;2023-04-01T09:42:31;1.17;;;1.07;;
5452;SDS011;2749;53.576;9.822;2023-04-01T09:44:59;0.60;;;0.60;;
5452;SDS011;2749;53.576;9.822;2023-04-01T09:50:18;0.73;;;0.73;;
5452;SDS011;2749;53.576;9.822;2023-04-01T09:52:56;3.37;;;1.83;;
5452;SDS011;2749;53.576;9.822;2023-04-01T10:16:15;2.23;;;1.17;;
5452;SDS011;2749;53.576;9.822;2023-04-01T10:18:56;4.50;;;1.00;;
5452;SDS011;2749;53.576;9.822;2023-04-01T10:24:05;0.97;;;0.87;;
5452;SDS011;2749;53.576;9.822;2023-04-01T10:26:44;1.03;;;0.93;;
5452;SDS011;2749;53.576;9.822;2023-04-01T10:35:14;0.93;;;0.80;;
5452;SDS011;2749;53.576;9.822;2023-04-01T10:50:23;1.00;;;0.60;;
5452;SDS011;2749;53.576;9.822;2023-04-01T11:09:19;1.00;;;0.80;;
5452;SDS011;2749;53.576;9.822;2023-04-01T11:12:08;1.00;;;0.90;;
5452;SDS011;2749;53.576;9.822;2023-04-01T11:17:20;0.70;;;0.70;;
5452;SDS011;2749;53.576;9.822;2023-04-01T11:19:56;0.80;;;0.80;;
5452;SDS011;2749;53.576;9.822;2023-04-01T11:27:53;0.80;;;0.80;;
5452;SDS011;2749;53.576;9.822;2023-04-01T11:32:57;1.07;;;0.93;;
5452;SDS011;2749;53.576;9.822;2023-04-01T11:35:29;0.80;;;0.80;;
5452;SDS011;2749;53.576;9.822;2023-04-01T11:40:28;0.90;;;0.90;;
5452;SDS011;2749;53.576;9.822;2023-04-01T11:43:06;2.63;;;1.20;;
5452;SDS011;2749;53.576;9.822;2023-04-01T11:45:39;1.00;;;0.80;;
5452;SDS011;2749;53.576;9.822;2023-04-01T11:48:18;1.47;;;1.37;;
5452;SDS011;2749;53.576;9.822;2023-04-01T11:50:52;2.43;;;1.70;;
5452;SDS011;2749;53.576;9.822;2023-04-01T11:56:00;1.90;;;1.33;;
5452;SDS011;2749;53.576;9.822;2023-04-01T11:58:31;2.23;;;1.50;;
5452;SDS011;2749;53.576;9.822;2023-04-01T12:03:35;1.53;;;1.40;;
5452;SDS011;2749;53.576;9.822;2023-04-01T12:08:42;1.50;;;1.40;;
5452;SDS011;2749;53.576;9.822;2023-04-01T12:11:46;1.73;;;1.30;;
5452;SDS011;2749;53.576;9.822;2023-04-01T12:16:40;3.53;;;2.20;;
5452;SDS011;2749;53.576;9.822;2023-04-01T12:21:51;3.00;;;2.70;;
5452;SDS011;2749;53.576;9.822;2023-04-01T12:24:22;4.60;;;3.13;;
5452;SDS011;2749;53.576;9.822;2023-04-01T12:27:04;3.13;;;2.80;;
5452;SDS011;2749;53.576;9.822;2023-04-01T12:32:40;7.80;;;3.37;;
5452;SDS011;2749;53.576;9.822;2023-04-01T12:57:07;3.43;;;3.10;;
5452;SDS011;2749;53.576;9.822;2023-04-01T12:59:43;4.80;;;3.20;;
5452;SDS011;2749;53.576;9.822;2023-04-01T13:10:27;5.07;;;4.57;;
5452;SDS011;2749;53.576;9.822;2023-04-01T13:13:05;5.63;;;3.00;;
5452;SDS011;2749;53.576;9.822;2023-04-01T13:15:36;3.50;;;3.20;;
5452;SDS011;2749;53.576;9.822;2023-04-01T13:18:07;3.60;;;3.30;;
5452;SDS011;2749;53.576;9.822;2023-04-01T13:23:10;5.77;;;4.27;;
5452;SDS011;2749;53.576;9.822;2023-04-01T13:25:39;4.00;;;3.70;;
5452;SDS011;2749;53.576;9.822;2023-04-01T13:28:15;5.17;;;4.53;;
5452;SDS011;2749;53.576;9.822;2023-04-01T13:30:47;5.57;;;4.60;;
5452;SDS011;2749;53.576;9.822;2023-04-01T13:33:25;6.20;;;3.90;;
5452;SDS011;2749;53.576;9.822;2023-04-01T13:36:08;3.00;;;2.77;;
5452;SDS011;2749;53.576;9.822;2023-04-01T13:38:40;4.07;;;3.30;;
5452;SDS011;2749;53.576;9.822;2023-04-01T13:44:29;2.57;;;2.20;;
5452;SDS011;2749;53.576;9.822;2023-04-01T13:50:15;3.73;;;3.07;;
5452;SDS011;2749;53.576;9.822;2023-04-01T13:55:09;2.83;;;2.20;;
5452;SDS011;2749;53.576;9.822;2023-04-01T14:05:24;4.93;;;3.60;;
5452;SDS011;2749;53.576;9.822;2023-04-01T14:10:48;4.23;;;3.83;;
5452;SDS011;2749;53.576;9.822;2023-04-01T14:13:29;3.67;;;3.37;;
5452;SDS011;2749;53.576;9.822;2023-04-01T14:16:00;3.30;;;3.00;;
5452;SDS011;2749;53.576;9.822;2023-04-01T14:18:42;4.90;;;3.33;;
5452;SDS011;2749;53.576;9.822;2023-04-01T14:21:21;3.50;;;3.20;;
5452;SDS011;2749;53.576;9.822;2023-04-01T14:31:48;5.70;;;4.00;;
5452;SDS011;2749;53.576;9.822;2023-04-01T14:37:07;5.33;;;3.90;;
5452;SDS011;2749;53.576;9.822;2023-04-01T14:39:43;4.53;;;4.07;;
5452;SDS011;2749;53.576;9.822;2023-04-01T14:47:44;5.27;;;4.87;;
5452;SDS011;2749;53.576;9.822;2023-04-01T14:50:19;4.50;;;3.60;;
5452;SDS011;2749;53.576;9.822;2023-04-01T14:52:55;5.30;;;3.93;;
5452;SDS011;2749;53.576;9.822;2023-04-01T14:55:28;11.30;;;5.07;;
5452;SDS011;2749;53.576;9.822;2023-04-01T14:58:14;8.23;;;5.40;;
5452;SDS011;2749;53.576;9.822;2023-04-01T15:00:58;6.50;;;4.40;;
5452;SDS011;2749;53.576;9.822;2023-04-01T15:05:56;10.23;;;5.33;;
5452;SDS011;2749;53.576;9.822;2023-04-01T15:08:26;8.30;;;4.33;;
5452;SDS011;2749;53.576;9.822;2023-04-01T15:11:05;7.70;;;6.20;;
5452;SDS011;2749;53.576;9.822;2023-04-01T15:13:40;10.07;;;4.80;;
5452;SDS011;2749;53.576;9.822;2023-04-01T15:19:01;6.93;;;4.20;;
5452;SDS011;2749;53.576;9.822;2023-04-01T15:32:17;5.43;;;4.10;;
5452;SDS011;2749;53.576;9.822;2023-04-01T15:34:46;6.37;;;4.80;;
5452;SDS011;2749;53.576;9.822;2023-04-01T15:40:23;6.27;;;4.63;;
5452;SDS011;2749;53.576;9.822;2023-04-01T15:42:55;4.93;;;4.13;;
5452;SDS011;2749;53.576;9.822;2023-04-01T15:48:20;4.60;;;4.03;;
5452;SDS011;2749;53.576;9.822;2023-04-01T15:50:54;11.63;;;4.70;;
5452;SDS011;2749;53.576;9.822;2023-04-01T15:53:44;8.97;;;5.53;;
5452;SDS011;2749;53.576;9.822;2023-04-01T15:56:18;8.33;;;5.33;;
5452;SDS011;2749;53.576;9.822;2023-04-01T15:58:49;4.37;;;3.80;;
5452;SDS011;2749;53.576;9.822;2023-04-01T16:06:31;6.40;;;4.50;;
5452;SDS011;2749;53.576;9.822;2023-04-01T16:11:28;5.83;;;4.97;;
5452;SDS011;2749;53.576;9.822;2023-04-01T16:16:41;8.67;;;6.20;;
5452;SDS011;2749;53.576;9.822;2023-04-01T16:21:58;8.63;;;4.67;;
5452;SDS011;2749;53.576;9.822;2023-04-01T16:24:37;10.93;;;5.70;;
5452;SDS011;2749;53.576;9.822;2023-04-01T16:27:10;9.67;;;6.00;;
5452;SDS011;2749;53.576;9.822;2023-04-01T16:40:13;6.33;;;4.60;;
5452;SDS011;2749;53.576;9.822;2023-04-01T16:47:50;6.90;;;4.30;;
5452;SDS011;2749;53.576;9.822;2023-04-01T16:58:06;7.73;;;5.47;;
5452;SDS011;2749;53.576;9.822;2023-04-01T17:03:13;9.57;;;5.67;;
5452;SDS011;2749;53.576;9.822;2023-04-01T17:05:54;6.57;;;5.07;;
5452;SDS011;2749;53.576;9.822;2023-04-01T17:10:56;11.13;;;5.97;;
5452;SDS011;2749;53.576;9.822;2023-04-01T17:13:33;6.60;;;4.60;;
5452;SDS011;2749;53.576;9.822;2023-04-01T17:16:02;5.70;;;4.17;;
5452;SDS011;2749;53.576;9.822;2023-04-01T17:21:38;5.40;;;4.70;;
5452;SDS011;2749;53.576;9.822;2023-04-01T17:24:18;5.13;;;3.97;;
5452;SDS011;2749;53.576;9.822;2023-04-01T17:26:55;5.80;;;4.20;;
5452;SDS011;2749;53.576;9.822;2023-04-01T17:29:31;4.93;;;3.60;;
5452;SDS011;2749;53.576;9.822;2023-04-01T17:34:46;4.40;;;3.37;;
5452;SDS011;2749;53.576;9.822;2023-04-01T17:37:28;5.77;;;3.03;;
5452;SDS011;2749;53.576;9.822;2023-04-01T17:42:30;10.40;;;3.90;;
5452;SDS011;2749;53.576;9.822;2023-04-01T17:52:26;4.13;;;3.67;;
5452;SDS011;2749;53.576;9.822;2023-04-01T17:55:15;5.20;;;4.37;;
5452;SDS011;2749;53.576;9.822;2023-04-01T17:57:46;4.03;;;3.23;;
5452;SDS011;2749;53.576;9.822;2023-04-01T18:00:46;7.13;;;3.47;;
5452;SDS011;2749;53.576;9.822;2023-04-01T18:05:35;3.10;;;2.80;;
5452;SDS011;2749;53.576;9.822;2023-04-01T18:08:11;5.53;;;3.00;;
5452;SDS011;2749;53.576;9.822;2023-04-01T18:10:41;4.00;;;3.37;;
5452;SDS011;2749;53.576;9.822;2023-04-01T18:21:13;4.80;;;2.67;;
5452;SDS011;2749;53.576;9.822;2023-04-01T18:23:46;4.07;;;3.20;;
5452;SDS011;2749;53.576;9.822;2023-04-01T18:26:18;6.20;;;3.90;;
5452;SDS011;2749;53.576;9.822;2023-04-01T18:28:49;4.73;;;4.23;;
5452;SDS011;2749;53.576;9.822;2023-04-01T18:31:18;5.17;;;4.03;;
5452;SDS011;2749;53.576;9.822;2023-04-01T18:36:37;10.20;;;4.60;;
5452;SDS011;2749;53.576;9.822;2023-04-01T18:41:58;3.50;;;3.20;;
5452;SDS011;2749;53.576;9.822;2023-04-01T18:44:27;3.97;;;3.40;;
5452;SDS011;2749;53.576;9.822;2023-04-01T18:47:07;4.47;;;3.13;;
5452;SDS011;2749;53.576;9.822;2023-04-01T18:49:45;4.43;;;3.13;;
5452;SDS011;2749;53.576;9.822;2023-04-01T18:52:21;5.03;;;3.27;;
5452;SDS011;2749;53.576;9.822;2023-04-01T18:55:15;5.53;;;3.40;;
5452;SDS011;2749;53.576;9.822;2023-04-01T18:57:39;3.97;;;3.57;;
5452;SDS011;2749;53.576;9.822;2023-04-01T19:00:51;5.57;;;4.20;;
5452;SDS011;2749;53.576;9.822;2023-04-01T19:05:29;4.37;;;3.67;;
5452;SDS011;2749;53.576;9.822;2023-04-01T19:07:56;3.63;;;3.33;;
5452;SDS011;2749;53.576;9.822;2023-04-01T19:10:54;4.90;;;3.47;;
5452;SDS011;2749;53.576;9.822;2023-04-01T19:15:51;2.97;;;2.67;;
5452;SDS011;2749;53.576;9.822;2023-04-01T19:20:56;5.60;;;3.10;;
5452;SDS011;2749;53.576;9.822;2023-04-01T19:28:20;10.03;;;3.10;;
5452;SDS011;2749;53.576;9.822;2023-04-01T19:30:53;5.23;;;3.53;;
5452;SDS011;2749;53.576;9.822;2023-04-01T19:33:22;3.10;;;2.70;;
5452;SDS011;2749;53.576;9.822;2023-04-01T19:36:03;4.17;;;3.13;;
5452;SDS011;2749;53.576;9.822;2023-04-01T19:41:11;6.90;;;3.80;;
5452;SDS011;2749;53.576;9.822;2023-04-01T19:43:44;7.00;;;3.70;;
5452;SDS011;2749;53.576;9.822;2023-04-01T19:56:42;3.87;;;3.17;;
5452;SDS011;2749;53.576;9.822;2023-04-01T20:01:55;5.10;;;3.07;;
5452;SDS011;2749;53.576;9.822;2023-04-01T20:22:38;5.70;;;4.17;;
5452;SDS011;2749;53.576;9.822;2023-04-01T20:25:22;3.60;;;2.63;;
5452;SDS011;2749;53.576;9.822;2023-04-01T20:27:50;7.23;;;3.30;;
5452;SDS011;2749;53.576;9.822;2023-04-01T20:30:20;4.97;;;2.83;;
5452;SDS011;2749;53.576;9.822;2023-04-01T20:35:45;3.87;;;3.50;;
5452;SDS011;2749;53.576;9.822;2023-04-01T20:40:46;3.53;;;2.77;;
5452;SDS011;2749;53.576;9.822;2023-04-01T20:43:20;5.13;;;3.27;;
5452;SDS011;2749;53.576;9.822;2023-04-01T20:46:00;3.20;;;2.87;;
5452;SDS011;2749;53.576;9.822;2023-04-01T20:53:28;7.80;;;2.90;;
5452;SDS011;2749;53.576;9.822;2023-04-01T20:58:48;6.97;;;3.77;;
5452;SDS011;2749;53.576;9.822;2023-04-01T21:04:07;5.30;;;3.30;;
5452;SDS011;2749;53.576;9.822;2023-04-01T21:14:41;3.10;;;1.93;;
5452;SDS011;2749;53.576;9.822;2023-04-01T21:22:44;3.13;;;2.80;;
5452;SDS011;2749;53.576;9.822;2023-04-01T21:28:19;4.70;;;3.47;;
5452;SDS011;2749;53.576;9.822;2023-04-01T21:33:33;9.67;;;2.70;;
5452;SDS011;2749;53.576;9.822;2023-04-01T21:38:36;4.00;;;2.67;;
5452;SDS011;2749;53.576;9.822;2023-04-01T21:48:52;3.10;;;2.80;;
5452;SDS011;2749;53.576;9.822;2023-04-01T22:01:54;5.00;;;2.63;;
5452;SDS011;2749;53.576;9.822;2023-04-01T22:07:10;7.63;;;3.03;;
5452;SDS011;2749;53.576;9.822;2023-04-01T22:15:03;3.67;;;2.40;;
5452;SDS011;2749;53.576;9.822;2023-04-01T22:17:40;6.83;;;1.97;;
5452;SDS011;2749;53.576;9.822;2023-04-01T22:20:14;4.90;;;2.13;;
5452;SDS011;2749;53.576;9.822;2023-04-01T22:23:02;6.50;;;2.27;;
5452;SDS011;2749;53.576;9.822;2023-04-01T22:28:12;3.83;;;2.20;;
5452;SDS011;2749;53.576;9.822;2023-04-01T22:30:43;3.23;;;1.93;;
5452;SDS011;2749;53.576;9.822;2023-04-01T22:33:14;3.27;;;2.50;;
5452;SDS011;2749;53.576;9.822;2023-04-01T22:41:14;6.03;;;2.00;;
5452;SDS011;2749;53.576;9.822;2023-04-01T22:43:45;2.50;;;1.63;;
5452;SDS011;2749;53.576;9.822;2023-04-01T22:46:31;3.87;;;1.50;;
5452;SDS011;2749;53.576;9.822;2023-04-01T22:49:17;3.33;;;3.03;;
5452;SDS011;2749;53.576;9.822;2023-04-01T22:51:54;4.30;;;1.70;;
5452;SDS011;2749;53.576;9.822;2023-04-01T22:54:30;4.97;;;1.83;;
5452;SDS011;2749;53.576;9.822;2023-04-01T22:57:04;9.87;;;1.93;;
5452;SDS011;2749;53.576;9.822;2023-04-01T23:02:20;6.47;;;2.10;;
5452;SDS011;2749;53.576;9.822;2023-04-01T23:04:48;4.40;;;1.80;;
5452;SDS011;2749;53.576;9.822;2023-04-01T23:07:21;4.30;;;2.27;;
5452;SDS011;2749;53.576;9.822;2023-04-01T23:09:49;7.20;;;2.73;;
5452;SDS011;2749;53.576;9.822;2023-04-01T23:12:16;2.73;;;1.87;;
5452;SDS011;2749;53.576;9.822;2023-04-01T23:14:50;4.43;;;1.90;;
5452;SDS011;2749;53.576;9.822;2023-04-01T23:22:29;4.00;;;1.83;;
5452;SDS011;2749;53.576;9.822;2023-04-01T23:25:10;2.53;;;1.50;;
5452;SDS011;2749;53.576;9.822;2023-04-01T23:33:10;7.10;;;2.37;;
5452;SDS011;2749;53.576;9.822;2023-04-01T23:35:47;1.87;;;1.13;;
5452;SDS011;2749;53.576;9.822;2023-04-01T23:38:13;4.60;;;1.30;;
5452;SDS011;2749;53.576;9.822;2023-04-01T23:40:40;4.33;;;1.53;;
5452;SDS011;2749;53.576;9.822;2023-04-01T23:43:13;4.80;;;1.30;;